sensor_id;sensor_type;location;lat;lon;timestamp;P1;durP1;ratioP1;P2;durP2;ratioP2
3873;SDS011;1952;50.872;6.692;2023-03-04T00:31:22;56.20;;;24.43;;
3873;SDS011;1952;50.872;6.692;2023-03-04T00:33:50;49.53;;;22.87;;
3873;SDS011;1952;50.872;6.692;2023-03-04T00:36:18;43.30;;;22.67;;
3873;SDS011;1952;50.872;6.692;2023-03-04T00:38:46;57.00;;;26.77;;
3873;SDS011;1952;50.872;6.692;2023-03-04T00:41:14;47.20;;;25.13;;
3873;SDS011;1952;50.872;6.692;2023-03-04T00:43:48;51.17;;;26.67;;
3873;SDS011;1952;50.872;6.692;2023-03-04T00:46:22;68.10;;;27.00;;
3873;SDS011;1952;50.872;6.692;2023-03-04T00:48:50;66.57;;;27.00;;
3873;SDS011;1952;50.872;6.692;2023-03-04T00:51:18;44.50;;;25.60;;
3873;SDS011;1952;50.872;6.692;2023-03-04T00:53:47;47.47;;;23.33;;
3873;SDS011;1952;50.872;6.692;2023-03-04T00:56:19;50.03;;;26.60;;
3873;SDS011;1952;50.872;6.692;2023-03-04T00:58:53;50.53;;;25.37;;
3873;SDS011;1952;50.872;6.692;2023-03-04T01:01:22;52.33;;;25.87;;
3873;SDS011;1952;50.872;6.692;2023-03-04T01:03:50;56.80;;;24.20;;
3873;SDS011;1952;50.872;6.692;2023-03-04T01:06:19;50.83;;;25.20;;
3873;SDS011;1952;50.872;6.692;2023-03-04T01:08:47;49.57;;;23.90;;
3873;SDS011;1952;50.872;6.692;2023-03-04T01:11:15;48.00;;;25.93;;
3873;SDS011;1952;50.872;6.692;2023-03-04T01:13:48;41.20;;;21.93;;
3873;SDS011;1952;50.872;6.692;2023-03-04T01:16:16;47.17;;;23.43;;
3873;SDS011;1952;50.872;6.692;2023-03-04T01:18:45;41.63;;;22.80;;
3873;SDS011;1952;50.872;6.692;2023-03-04T01:21:18;43.87;;;20.87;;
3873;SDS011;1952;50.872;6.692;2023-03-04T01:23:51;41.70;;;21.37;;
3873;SDS011;1952;50.872;6.692;2023-03-04T01:26:20;41.70;;;21.03;;
3873;SDS011;1952;50.872;6.692;2023-03-04T01:28:48;29.80;;;18.83;;
3873;SDS011;1952;50.872;6.692;2023-03-04T01:31:16;32.87;;;17.83;;
3873;SDS011;1952;50.872;6.692;2023-03-04T01:33:45;35.73;;;18.90;;
3873;SDS011;1952;50.872;6.692;2023-03-04T01:36:14;37.67;;;20.60;;
3873;SDS011;1952;50.872;6.692;2023-03-04T01:38:47;34.33;;;20.57;;
3873;SDS011;1952;50.872;6.692;2023-03-04T01:41:16;35.40;;;19.50;;
3873;SDS011;1952;50.872;6.692;2023-03-04T01:43:49;37.10;;;20.87;;
3873;SDS011;1952;50.872;6.692;2023-03-04T01:46:23;30.00;;;17.93;;
3873;SDS011;1952;50.872;6.692;2023-03-04T01:48:53;37.87;;;18.13;;
3873;SDS011;1952;50.872;6.692;2023-03-04T01:51:21;29.70;;;16.77;;
3873;SDS011;1952;50.872;6.692;2023-03-04T01:53:54;37.03;;;19.33;;
3873;SDS011;1952;50.872;6.692;2023-03-04T01:56:28;24.90;;;15.77;;
3873;SDS011;1952;50.872;6.692;2023-03-04T01:59:06;33.77;;;16.40;;
3873;SDS011;1952;50.872;6.692;2023-03-04T02:01:35;34.37;;;18.00;;
3873;SDS011;1952;50.872;6.692;2023-03-04T02:04:05;29.70;;;17.37;;
3873;SDS011;1952;50.872;6.692;2023-03-04T02:06:39;32.87;;;17.00;;
3873;SDS011;1952;50.872;6.692;2023-03-04T02:09:07;35.93;;;15.80;;
3873;SDS011;1952;50.872;6.692;2023-03-04T02:11:36;29.10;;;17.97;;
3873;SDS011;1952;50.872;6.692;2023-03-04T02:14:11;32.23;;;17.50;;
3873;SDS011;1952;50.872;6.692;2023-03-04T02:16:45;35.63;;;16.87;;
3873;SDS011;1952;50.872;6.692;2023-03-04T02:19:21;31.40;;;17.03;;
3873;SDS011;1952;50.872;6.692;2023-03-04T02:21:56;32.33;;;17.53;;
3873;SDS011;1952;50.872;6.692;2023-03-04T02:24:30;33.80;;;17.90;;
3873;SDS011;1952;50.872;6.692;2023-03-04T02:27:02;23.70;;;16.67;;
3873;SDS011;1952;50.872;6.692;2023-03-04T02:29:35;40.20;;;21.97;;
3873;SDS011;1952;50.872;6.692;2023-03-04T02:32:03;42.50;;;22.70;;
3873;SDS011;1952;50.872;6.692;2023-03-04T02:34:32;43.63;;;21.73;;
3873;SDS011;1952;50.872;6.692;2023-03-04T02:37:01;39.37;;;21.50;;
3873;SDS011;1952;50.872;6.692;2023-03-04T02:39:30;49.17;;;24.37;;
3873;SDS011;1952;50.872;6.692;2023-03-04T02:42:00;48.97;;;25.13;;
3873;SDS011;1952;50.872;6.692;2023-03-04T02:44:30;41.67;;;23.17;;
3873;SDS011;1952;50.872;6.692;2023-03-04T02:47:05;39.87;;;18.57;;
3873;SDS011;1952;50.872;6.692;2023-03-04T02:49:39;29.40;;;16.40;;
3873;SDS011;1952;50.872;6.692;2023-03-04T02:52:08;34.20;;;15.70;;
3873;SDS011;1952;50.872;6.692;2023-03-04T02:54:40;34.50;;;14.20;;
3873;SDS011;1952;50.872;6.692;2023-03-04T02:57:13;33.93;;;15.93;;
3873;SDS011;1952;50.872;6.692;2023-03-04T02:59:43;26.47;;;14.53;;
3873;SDS011;1952;50.872;6.692;2023-03-04T03:02:11;27.20;;;14.83;;
3873;SDS011;1952;50.872;6.692;2023-03-04T03:04:44;24.20;;;13.40;;
3873;SDS011;1952;50.872;6.692;2023-03-04T03:07:17;27.00;;;15.47;;
3873;SDS011;1952;50.872;6.692;2023-03-04T03:09:45;36.03;;;18.93;;
3873;SDS011;1952;50.872;6.692;2023-03-04T03:12:13;36.10;;;18.63;;
3873;SDS011;1952;50.872;6.692;2023-03-04T03:14:43;38.97;;;18.30;;
3873;SDS011;1952;50.872;6.692;2023-03-04T03:17:16;30.30;;;14.53;;
3873;SDS011;1952;50.872;6.692;2023-03-04T03:19:44;23.43;;;15.37;;
3873;SDS011;1952;50.872;6.692;2023-03-04T03:22:12;23.30;;;11.97;;
3873;SDS011;1952;50.872;6.692;2023-03-04T03:24:45;23.70;;;15.10;;
3873;SDS011;1952;50.872;6.692;2023-03-04T03:27:18;27.57;;;15.40;;
3873;SDS011;1952;50.872;6.692;2023-03-04T03:29:48;24.43;;;14.63;;
3873;SDS011;1952;50.872;6.692;2023-03-04T03:32:16;20.57;;;12.80;;
3873;SDS011;1952;50.872;6.692;2023-03-04T03:34:45;30.70;;;13.83;;
3873;SDS011;1952;50.872;6.692;2023-03-04T03:37:18;22.03;;;12.47;;
3873;SDS011;1952;50.872;6.692;2023-03-04T03:39:46;16.70;;;11.30;;
3873;SDS011;1952;50.872;6.692;2023-03-04T03:42:14;24.00;;;13.30;;
3873;SDS011;1952;50.872;6.692;2023-03-04T03:44:42;23.77;;;12.03;;
3873;SDS011;1952;50.872;6.692;2023-03-04T03:47:17;24.60;;;13.43;;
3873;SDS011;1952;50.872;6.692;2023-03-04T03:49:45;19.70;;;12.00;;
3873;SDS011;1952;50.872;6.692;2023-03-04T03:52:18;23.20;;;12.27;;
3873;SDS011;1952;50.872;6.692;2023-03-04T03:54:46;22.17;;;11.30;;
3873;SDS011;1952;50.872;6.692;2023-03-04T03:57:14;30.13;;;13.00;;
3873;SDS011;1952;50.872;6.692;2023-03-04T03:59:47;26.80;;;12.77;;
3873;SDS011;1952;50.872;6.692;2023-03-04T04:02:15;17.93;;;12.13;;
3873;SDS011;1952;50.872;6.692;2023-03-04T04:04:45;26.07;;;13.97;;
3873;SDS011;1952;50.872;6.692;2023-03-04T04:07:18;21.47;;;14.63;;
3873;SDS011;1952;50.872;6.692;2023-03-04T04:09:53;22.70;;;13.87;;
3873;SDS011;1952;50.872;6.692;2023-03-04T04:12:27;26.23;;;11.60;;
3873;SDS011;1952;50.872;6.692;2023-03-04T04:14:56;24.07;;;12.00;;
3873;SDS011;1952;50.872;6.692;2023-03-04T04:17:24;21.90;;;12.30;;
3873;SDS011;1952;50.872;6.692;2023-03-04T04:19:58;19.10;;;11.20;;
3873;SDS011;1952;50.872;6.692;2023-03-04T04:22:27;22.03;;;11.37;;
3873;SDS011;1952;50.872;6.692;2023-03-04T04:24:55;17.33;;;11.40;;
3873;SDS011;1952;50.872;6.692;2023-03-04T04:27:28;22.30;;;14.07;;
3873;SDS011;1952;50.872;6.692;2023-03-04T04:29:56;26.03;;;11.37;;
3873;SDS011;1952;50.872;6.692;2023-03-04T04:32:24;22.03;;;13.17;;
3873;SDS011;1952;50.872;6.692;2023-03-04T04:34:59;24.43;;;15.40;;
3873;SDS011;1952;50.872;6.692;2023-03-04T04:37:27;39.40;;;18.93;;
3873;SDS011;1952;50.872;6.692;2023-03-04T04:39:55;40.10;;;19.00;;
3873;SDS011;1952;50.872;6.692;2023-03-04T04:42:28;34.17;;;17.73;;
3873;SDS011;1952;50.872;6.692;2023-03-04T04:45:01;27.90;;;15.47;;
3873;SDS011;1952;50.872;6.692;2023-03-04T04:47:29;31.90;;;17.83;;
3873;SDS011;1952;50.872;6.692;2023-03-04T04:49:59;27.57;;;14.00;;
3873;SDS011;1952;50.872;6.692;2023-03-04T04:52:27;23.63;;;15.30;;
3873;SDS011;1952;50.872;6.692;2023-03-04T04:54:55;24.47;;;13.20;;
3873;SDS011;1952;50.872;6.692;2023-03-04T04:57:28;19.37;;;12.63;;
3873;SDS011;1952;50.872;6.692;2023-03-04T04:59:56;25.00;;;12.50;;
3873;SDS011;1952;50.872;6.692;2023-03-04T05:02:25;27.87;;;13.00;;
3873;SDS011;1952;50.872;6.692;2023-03-04T05:04:53;23.80;;;13.53;;
3873;SDS011;1952;50.872;6.692;2023-03-04T05:07:27;30.30;;;13.77;;
3873;SDS011;1952;50.872;6.692;2023-03-04T05:09:56;27.80;;;13.50;;
3873;SDS011;1952;50.872;6.692;2023-03-04T05:12:24;36.17;;;17.50;;
3873;SDS011;1952;50.872;6.692;2023-03-04T05:14:52;31.53;;;16.07;;
3873;SDS011;1952;50.872;6.692;2023-03-04T05:17:20;26.30;;;11.93;;
3873;SDS011;1952;50.872;6.692;2023-03-04T05:19:49;20.80;;;11.70;;
3873;SDS011;1952;50.872;6.692;2023-03-04T05:22:17;26.23;;;11.80;;
3873;SDS011;1952;50.872;6.692;2023-03-04T05:24:46;19.77;;;10.13;;
3873;SDS011;1952;50.872;6.692;2023-03-04T05:27:15;25.93;;;11.13;;
3873;SDS011;1952;50.872;6.692;2023-03-04T05:29:43;17.20;;;10.17;;
3873;SDS011;1952;50.872;6.692;2023-03-04T05:32:16;25.43;;;9.30;;
3873;SDS011;1952;50.872;6.692;2023-03-04T05:34:45;11.10;;;7.87;;
3873;SDS011;1952;50.872;6.692;2023-03-04T05:37:13;15.40;;;8.90;;
3873;SDS011;1952;50.872;6.692;2023-03-04T05:39:47;15.13;;;7.43;;
3873;SDS011;1952;50.872;6.692;2023-03-04T05:42:16;15.93;;;8.03;;
3873;SDS011;1952;50.872;6.692;2023-03-04T05:44:44;17.53;;;8.70;;
3873;SDS011;1952;50.872;6.692;2023-03-04T05:47:12;17.43;;;9.00;;
3873;SDS011;1952;50.872;6.692;2023-03-04T05:49:45;19.53;;;8.70;;
3873;SDS011;1952;50.872;6.692;2023-03-04T05:52:13;16.23;;;7.57;;
3873;SDS011;1952;50.872;6.692;2023-03-04T06:33:14;12.67;;;7.13;;
3873;SDS011;1952;50.872;6.692;2023-03-04T06:35:42;14.13;;;6.47;;
3873;SDS011;1952;50.872;6.692;2023-03-04T06:38:10;13.27;;;6.40;;
3873;SDS011;1952;50.872;6.692;2023-03-04T06:40:43;10.70;;;6.17;;
3873;SDS011;1952;50.872;6.692;2023-03-04T06:43:17;13.23;;;6.50;;
3873;SDS011;1952;50.872;6.692;2023-03-04T06:45:45;13.90;;;5.10;;
3873;SDS011;1952;50.872;6.692;2023-03-04T06:48:14;9.03;;;5.37;;
3873;SDS011;1952;50.872;6.692;2023-03-04T06:50:47;14.80;;;6.00;;
3873;SDS011;1952;50.872;6.692;2023-03-04T06:53:15;9.50;;;5.23;;
3873;SDS011;1952;50.872;6.692;2023-03-04T06:55:46;8.77;;;4.87;;
3873;SDS011;1952;50.872;6.692;2023-03-04T06:58:14;16.10;;;6.13;;
3873;SDS011;1952;50.872;6.692;2023-03-04T07:00:43;8.90;;;5.37;;
3873;SDS011;1952;50.872;6.692;2023-03-04T07:03:17;10.90;;;5.50;;
3873;SDS011;1952;50.872;6.692;2023-03-04T07:05:51;8.70;;;4.87;;
3873;SDS011;1952;50.872;6.692;2023-03-04T07:08:19;14.93;;;5.30;;
3873;SDS011;1952;50.872;6.692;2023-03-04T07:10:47;7.97;;;5.40;;
3873;SDS011;1952;50.872;6.692;2023-03-04T07:13:21;13.70;;;5.57;;
3873;SDS011;1952;50.872;6.692;2023-03-04T07:15:53;13.03;;;6.40;;
3873;SDS011;1952;50.872;6.692;2023-03-04T07:18:28;8.90;;;5.17;;
3873;SDS011;1952;50.872;6.692;2023-03-04T07:20:56;13.93;;;4.77;;
3873;SDS011;1952;50.872;6.692;2023-03-04T07:23:24;11.73;;;5.37;;
3873;SDS011;1952;50.872;6.692;2023-03-04T07:25:52;12.10;;;5.50;;
3873;SDS011;1952;50.872;6.692;2023-03-04T07:28:25;8.40;;;4.90;;
3873;SDS011;1952;50.872;6.692;2023-03-04T07:30:54;15.30;;;6.00;;
3873;SDS011;1952;50.872;6.692;2023-03-04T07:33:28;11.83;;;4.90;;
3873;SDS011;1952;50.872;6.692;2023-03-04T07:35:59;11.47;;;5.03;;
3873;SDS011;1952;50.872;6.692;2023-03-04T07:38:27;19.23;;;5.47;;
3873;SDS011;1952;50.872;6.692;2023-03-04T07:41:00;11.97;;;5.53;;
3873;SDS011;1952;50.872;6.692;2023-03-04T07:43:33;11.07;;;5.03;;
3873;SDS011;1952;50.872;6.692;2023-03-04T07:46:07;6.83;;;4.00;;
3873;SDS011;1952;50.872;6.692;2023-03-04T07:48:36;10.70;;;5.27;;
3873;SDS011;1952;50.872;6.692;2023-03-04T07:51:05;9.03;;;4.63;;
3873;SDS011;1952;50.872;6.692;2023-03-04T07:53:39;8.93;;;4.30;;
3873;SDS011;1952;50.872;6.692;2023-03-04T07:56:14;8.33;;;3.57;;
3873;SDS011;1952;50.872;6.692;2023-03-04T07:58:42;6.10;;;4.23;;
3873;SDS011;1952;50.872;6.692;2023-03-04T08:01:17;7.43;;;4.30;;
3873;SDS011;1952;50.872;6.692;2023-03-04T08:03:47;12.00;;;4.33;;
3873;SDS011;1952;50.872;6.692;2023-03-04T08:06:20;7.30;;;4.53;;
3873;SDS011;1952;50.872;6.692;2023-03-04T08:08:49;11.27;;;4.00;;
3873;SDS011;1952;50.872;6.692;2023-03-04T08:11:28;8.73;;;4.20;;
3873;SDS011;1952;50.872;6.692;2023-03-04T08:14:01;10.13;;;5.07;;
3873;SDS011;1952;50.872;6.692;2023-03-04T08:16:29;11.00;;;4.53;;
3873;SDS011;1952;50.872;6.692;2023-03-04T08:18:59;6.90;;;2.90;;
3873;SDS011;1952;50.872;6.692;2023-03-04T08:21:33;13.10;;;4.63;;
3873;SDS011;1952;50.872;6.692;2023-03-04T08:24:06;7.10;;;3.87;;
3873;SDS011;1952;50.872;6.692;2023-03-04T08:26:36;9.70;;;4.20;;
3873;SDS011;1952;50.872;6.692;2023-03-04T08:29:07;6.13;;;4.70;;
3873;SDS011;1952;50.872;6.692;2023-03-04T08:31:41;8.23;;;3.37;;
3873;SDS011;1952;50.872;6.692;2023-03-04T08:34:18;12.40;;;3.83;;
3873;SDS011;1952;50.872;6.692;2023-03-04T08:36:52;5.20;;;3.37;;
3873;SDS011;1952;50.872;6.692;2023-03-04T08:39:25;7.27;;;3.83;;
3873;SDS011;1952;50.872;6.692;2023-03-04T08:41:53;8.53;;;3.87;;
3873;SDS011;1952;50.872;6.692;2023-03-04T08:44:26;6.30;;;4.10;;
3873;SDS011;1952;50.872;6.692;2023-03-04T08:46:59;6.27;;;2.77;;
3873;SDS011;1952;50.872;6.692;2023-03-04T08:49:34;9.50;;;4.17;;
3873;SDS011;1952;50.872;6.692;2023-03-04T08:52:02;7.97;;;3.27;;
3873;SDS011;1952;50.872;6.692;2023-03-04T08:54:36;6.83;;;3.97;;
3873;SDS011;1952;50.872;6.692;2023-03-04T08:57:04;8.57;;;2.87;;
3873;SDS011;1952;50.872;6.692;2023-03-04T08:59:33;7.47;;;3.00;;
3873;SDS011;1952;50.872;6.692;2023-03-04T09:02:06;4.67;;;3.43;;
3873;SDS011;1952;50.872;6.692;2023-03-04T09:04:40;9.30;;;3.40;;
3873;SDS011;1952;50.872;6.692;2023-03-04T09:09:37;5.07;;;3.37;;
3873;SDS011;1952;50.872;6.692;2023-03-04T09:12:10;3.90;;;2.87;;
3873;SDS011;1952;50.872;6.692;2023-03-04T09:14:43;5.20;;;2.87;;
3873;SDS011;1952;50.872;6.692;2023-03-04T09:17:16;5.27;;;1.90;;
3873;SDS011;1952;50.872;6.692;2023-03-04T09:19:46;4.17;;;2.33;;
3873;SDS011;1952;50.872;6.692;2023-03-04T09:22:14;3.70;;;2.53;;
3873;SDS011;1952;50.872;6.692;2023-03-04T09:24:47;3.20;;;2.73;;
3873;SDS011;1952;50.872;6.692;2023-03-04T09:27:15;5.00;;;3.53;;
3873;SDS011;1952;50.872;6.692;2023-03-04T09:29:43;7.50;;;2.70;;
3873;SDS011;1952;50.872;6.692;2023-03-04T09:32:16;5.50;;;3.20;;
3873;SDS011;1952;50.872;6.692;2023-03-04T09:34:45;9.80;;;3.33;;
3873;SDS011;1952;50.872;6.692;2023-03-04T09:37:14;7.07;;;3.03;;
3873;SDS011;1952;50.872;6.692;2023-03-04T09:39:47;7.50;;;3.30;;
3873;SDS011;1952;50.872;6.692;2023-03-04T09:42:16;7.13;;;3.50;;
3873;SDS011;1952;50.872;6.692;2023-03-04T09:44:49;7.20;;;3.30;;
3873;SDS011;1952;50.872;6.692;2023-03-04T09:47:18;5.60;;;2.80;;
3873;SDS011;1952;50.872;6.692;2023-03-04T09:49:51;6.73;;;3.50;;
3873;SDS011;1952;50.872;6.692;2023-03-04T09:52:28;7.40;;;4.47;;
3873;SDS011;1952;50.872;6.692;2023-03-04T09:55:11;10.40;;;3.50;;
3873;SDS011;1952;50.872;6.692;2023-03-04T09:57:46;6.13;;;4.13;;
3873;SDS011;1952;50.872;6.692;2023-03-04T10:00:16;5.13;;;2.30;;
3873;SDS011;1952;50.872;6.692;2023-03-04T10:02:58;3.77;;;2.67;;
3873;SDS011;1952;50.872;6.692;2023-03-04T10:05:38;9.27;;;3.00;;
3873;SDS011;1952;50.872;6.692;2023-03-04T10:08:20;6.03;;;2.63;;
3873;SDS011;1952;50.872;6.692;2023-03-04T10:10:57;4.63;;;2.87;;
3873;SDS011;1952;50.872;6.692;2023-03-04T10:13:28;3.60;;;2.50;;
3873;SDS011;1952;50.872;6.692;2023-03-04T10:15:58;9.90;;;3.33;;
3873;SDS011;1952;50.872;6.692;2023-03-04T10:18:29;8.60;;;2.90;;
3873;SDS011;1952;50.872;6.692;2023-03-04T10:21:01;11.47;;;3.07;;
3873;SDS011;1952;50.872;6.692;2023-03-04T10:23:34;6.83;;;3.20;;
3873;SDS011;1952;50.872;6.692;2023-03-04T10:26:09;4.30;;;2.93;;
3873;SDS011;1952;50.872;6.692;2023-03-04T10:28:38;4.90;;;3.07;;
3873;SDS011;1952;50.872;6.692;2023-03-04T10:31:13;6.30;;;2.67;;
3873;SDS011;1952;50.872;6.692;2023-03-04T10:33:44;5.70;;;3.07;;
3873;SDS011;1952;50.872;6.692;2023-03-04T10:36:17;4.10;;;2.50;;
3873;SDS011;1952;50.872;6.692;2023-03-04T10:38:52;5.37;;;3.47;;
3873;SDS011;1952;50.872;6.692;2023-03-04T10:41:26;5.30;;;3.00;;
3873;SDS011;1952;50.872;6.692;2023-03-04T10:43:59;9.53;;;2.90;;
3873;SDS011;1952;50.872;6.692;2023-03-04T10:46:35;7.00;;;3.20;;
3873;SDS011;1952;50.872;6.692;2023-03-04T10:49:09;8.03;;;3.27;;
3873;SDS011;1952;50.872;6.692;2023-03-04T10:51:44;3.87;;;2.20;;
3873;SDS011;1952;50.872;6.692;2023-03-04T10:54:23;5.87;;;2.63;;
3873;SDS011;1952;50.872;6.692;2023-03-04T10:57:00;8.60;;;3.20;;
3873;SDS011;1952;50.872;6.692;2023-03-04T11:02:19;3.40;;;2.57;;
3873;SDS011;1952;50.872;6.692;2023-03-04T11:04:49;6.20;;;2.63;;
3873;SDS011;1952;50.872;6.692;2023-03-04T11:07:20;3.63;;;2.10;;
3873;SDS011;1952;50.872;6.692;2023-03-04T11:09:48;2.60;;;2.13;;
3873;SDS011;1952;50.872;6.692;2023-03-04T11:12:18;5.43;;;2.43;;
3873;SDS011;1952;50.872;6.692;2023-03-04T11:14:48;2.27;;;2.07;;
3873;SDS011;1952;50.872;6.692;2023-03-04T11:17:18;4.87;;;2.70;;
3873;SDS011;1952;50.872;6.692;2023-03-04T11:19:52;2.20;;;2.07;;
3873;SDS011;1952;50.872;6.692;2023-03-04T11:22:23;3.87;;;2.07;;
3873;SDS011;1952;50.872;6.692;2023-03-04T11:24:57;3.70;;;2.03;;
3873;SDS011;1952;50.872;6.692;2023-03-04T11:27:32;4.60;;;2.50;;
3873;SDS011;1952;50.872;6.692;2023-03-04T11:30:17;1.90;;;1.63;;
3873;SDS011;1952;50.872;6.692;2023-03-04T11:33:02;3.13;;;2.43;;
3873;SDS011;1952;50.872;6.692;2023-03-04T11:35:49;4.63;;;2.47;;
3873;SDS011;1952;50.872;6.692;2023-03-04T11:38:19;4.50;;;1.90;;
3873;SDS011;1952;50.872;6.692;2023-03-04T11:40:53;3.83;;;2.00;;
3873;SDS011;1952;50.872;6.692;2023-03-04T11:43:24;2.97;;;2.00;;
3873;SDS011;1952;50.872;6.692;2023-03-04T11:46:05;2.97;;;1.80;;
3873;SDS011;1952;50.872;6.692;2023-03-04T11:48:44;1.77;;;1.50;;
3873;SDS011;1952;50.872;6.692;2023-03-04T11:51:22;1.90;;;1.70;;
3873;SDS011;1952;50.872;6.692;2023-03-04T12:33:40;3.63;;;1.93;;
3873;SDS011;1952;50.872;6.692;2023-03-04T12:36:12;5.90;;;1.93;;
3873;SDS011;1952;50.872;6.692;2023-03-04T12:38:48;3.57;;;2.40;;
3873;SDS011;1952;50.872;6.692;2023-03-04T12:41:22;5.27;;;2.53;;
3873;SDS011;1952;50.872;6.692;2023-03-04T12:44:00;3.80;;;3.40;;
3873;SDS011;1952;50.872;6.692;2023-03-04T12:46:40;3.37;;;2.10;;
3873;SDS011;1952;50.872;6.692;2023-03-04T12:49:22;2.73;;;2.03;;
3873;SDS011;1952;50.872;6.692;2023-03-04T12:52:02;2.43;;;2.00;;
3873;SDS011;1952;50.872;6.692;2023-03-04T12:54:39;2.53;;;2.00;;
3873;SDS011;1952;50.872;6.692;2023-03-04T12:57:08;6.57;;;3.50;;
3873;SDS011;1952;50.872;6.692;2023-03-04T12:59:39;5.73;;;1.70;;
3873;SDS011;1952;50.872;6.692;2023-03-04T13:02:20;4.70;;;1.87;;
3873;SDS011;1952;50.872;6.692;2023-03-04T13:04:58;3.40;;;2.00;;
3873;SDS011;1952;50.872;6.692;2023-03-04T13:07:37;1.97;;;1.87;;
3873;SDS011;1952;50.872;6.692;2023-03-04T13:10:12;3.80;;;1.80;;
3873;SDS011;1952;50.872;6.692;2023-03-04T13:12:47;5.13;;;2.37;;
3873;SDS011;1952;50.872;6.692;2023-03-04T13:15:17;2.20;;;1.90;;
3873;SDS011;1952;50.872;6.692;2023-03-04T13:17:46;1.77;;;1.60;;
3873;SDS011;1952;50.872;6.692;2023-03-04T13:20:23;2.30;;;2.10;;
3873;SDS011;1952;50.872;6.692;2023-03-04T13:23:00;3.00;;;2.10;;
3873;SDS011;1952;50.872;6.692;2023-03-04T13:25:31;6.13;;;3.13;;
3873;SDS011;1952;50.872;6.692;2023-03-04T13:28:11;2.80;;;2.40;;
3873;SDS011;1952;50.872;6.692;2023-03-04T13:30:41;1.77;;;1.57;;
3873;SDS011;1952;50.872;6.692;2023-03-04T13:36:04;2.17;;;1.90;;
3873;SDS011;1952;50.872;6.692;2023-03-04T13:38:34;5.60;;;2.60;;
3873;SDS011;1952;50.872;6.692;2023-03-04T13:41:09;4.03;;;2.30;;
3873;SDS011;1952;50.872;6.692;2023-03-04T13:43:39;2.70;;;2.20;;
3873;SDS011;1952;50.872;6.692;2023-03-04T13:46:29;3.27;;;2.10;;
3873;SDS011;1952;50.872;6.692;2023-03-04T13:48:59;3.93;;;2.23;;
3873;SDS011;1952;50.872;6.692;2023-03-04T13:51:35;4.23;;;2.20;;
3873;SDS011;1952;50.872;6.692;2023-03-04T13:54:07;2.57;;;2.10;;
3873;SDS011;1952;50.872;6.692;2023-03-04T13:56:39;3.27;;;2.37;;
3873;SDS011;1952;50.872;6.692;2023-03-04T13:59:22;2.57;;;1.83;;
3873;SDS011;1952;50.872;6.692;2023-03-04T14:01:54;3.00;;;2.17;;
3873;SDS011;1952;50.872;6.692;2023-03-04T14:04:29;2.87;;;2.47;;
3873;SDS011;1952;50.872;6.692;2023-03-04T14:07:00;3.00;;;2.27;;
3873;SDS011;1952;50.872;6.692;2023-03-04T14:09:29;2.60;;;2.40;;
3873;SDS011;1952;50.872;6.692;2023-03-04T14:11:58;2.73;;;2.53;;
3873;SDS011;1952;50.872;6.692;2023-03-04T14:14:29;2.53;;;2.10;;
3873;SDS011;1952;50.872;6.692;2023-03-04T14:16:59;2.63;;;1.67;;
3873;SDS011;1952;50.872;6.692;2023-03-04T14:19:28;2.57;;;2.17;;
3873;SDS011;1952;50.872;6.692;2023-03-04T14:21:56;2.70;;;2.50;;
3873;SDS011;1952;50.872;6.692;2023-03-04T14:24:32;1.57;;;1.47;;
3873;SDS011;1952;50.872;6.692;2023-03-04T14:27:08;3.17;;;2.17;;
3873;SDS011;1952;50.872;6.692;2023-03-04T14:29:37;3.33;;;2.00;;
3873;SDS011;1952;50.872;6.692;2023-03-04T14:32:06;3.50;;;2.03;;
3873;SDS011;1952;50.872;6.692;2023-03-04T14:34:35;2.47;;;2.27;;
3873;SDS011;1952;50.872;6.692;2023-03-04T14:37:17;2.30;;;2.07;;
3873;SDS011;1952;50.872;6.692;2023-03-04T14:39:49;2.30;;;2.10;;
3873;SDS011;1952;50.872;6.692;2023-03-04T14:42:20;4.57;;;1.90;;
3873;SDS011;1952;50.872;6.692;2023-03-04T14:44:54;8.33;;;2.57;;
3873;SDS011;1952;50.872;6.692;2023-03-04T14:47:25;2.27;;;2.07;;
3873;SDS011;1952;50.872;6.692;2023-03-04T14:49:54;4.30;;;2.90;;
3873;SDS011;1952;50.872;6.692;2023-03-04T14:52:26;3.10;;;2.30;;
3873;SDS011;1952;50.872;6.692;2023-03-04T14:55:14;2.30;;;2.10;;
3873;SDS011;1952;50.872;6.692;2023-03-04T14:57:44;2.33;;;2.13;;
3873;SDS011;1952;50.872;6.692;2023-03-04T15:00:13;2.63;;;1.80;;
3873;SDS011;1952;50.872;6.692;2023-03-04T15:02:41;5.10;;;2.70;;
3873;SDS011;1952;50.872;6.692;2023-03-04T15:05:10;9.07;;;2.77;;
3873;SDS011;1952;50.872;6.692;2023-03-04T15:07:50;2.27;;;1.97;;
3873;SDS011;1952;50.872;6.692;2023-03-04T15:10:21;2.00;;;1.90;;
3873;SDS011;1952;50.872;6.692;2023-03-04T15:12:50;8.93;;;3.10;;
3873;SDS011;1952;50.872;6.692;2023-03-04T15:15:29;2.97;;;2.77;;
3873;SDS011;1952;50.872;6.692;2023-03-04T15:18:03;2.43;;;2.23;;
3873;SDS011;1952;50.872;6.692;2023-03-04T15:20:52;3.40;;;2.20;;
3873;SDS011;1952;50.872;6.692;2023-03-04T15:23:21;5.87;;;2.73;;
3873;SDS011;1952;50.872;6.692;2023-03-04T15:25:51;1.90;;;1.80;;
3873;SDS011;1952;50.872;6.692;2023-03-04T15:28:21;2.70;;;2.30;;
3873;SDS011;1952;50.872;6.692;2023-03-04T15:30:54;2.40;;;2.20;;
3873;SDS011;1952;50.872;6.692;2023-03-04T15:33:23;5.40;;;2.40;;
3873;SDS011;1952;50.872;6.692;2023-03-04T15:35:52;6.00;;;3.60;;
3873;SDS011;1952;50.872;6.692;2023-03-04T15:38:25;3.00;;;2.40;;
3873;SDS011;1952;50.872;6.692;2023-03-04T15:40:54;2.90;;;2.00;;
3873;SDS011;1952;50.872;6.692;2023-03-04T15:43:25;2.57;;;2.30;;
3873;SDS011;1952;50.872;6.692;2023-03-04T15:45:59;3.40;;;2.57;;
3873;SDS011;1952;50.872;6.692;2023-03-04T15:48:29;5.40;;;2.27;;
3873;SDS011;1952;50.872;6.692;2023-03-04T15:50:58;4.03;;;2.53;;
3873;SDS011;1952;50.872;6.692;2023-03-04T15:53:29;2.87;;;1.80;;
3873;SDS011;1952;50.872;6.692;2023-03-04T15:56:00;2.37;;;2.17;;
3873;SDS011;1952;50.872;6.692;2023-03-04T15:58:31;4.53;;;2.23;;
3873;SDS011;1952;50.872;6.692;2023-03-04T16:01:00;4.70;;;2.60;;
3873;SDS011;1952;50.872;6.692;2023-03-04T16:03:31;2.77;;;2.27;;
3873;SDS011;1952;50.872;6.692;2023-03-04T16:05:59;2.87;;;2.57;;
3873;SDS011;1952;50.872;6.692;2023-03-04T16:08:28;2.73;;;2.23;;
3873;SDS011;1952;50.872;6.692;2023-03-04T16:10:57;3.50;;;2.57;;
3873;SDS011;1952;50.872;6.692;2023-03-04T16:13:34;2.33;;;2.13;;
3873;SDS011;1952;50.872;6.692;2023-03-04T16:16:08;8.07;;;3.80;;
3873;SDS011;1952;50.872;6.692;2023-03-04T16:18:37;3.43;;;1.97;;
3873;SDS011;1952;50.872;6.692;2023-03-04T16:21:12;1.93;;;1.83;;
3873;SDS011;1952;50.872;6.692;2023-03-04T16:23:42;3.20;;;2.23;;
3873;SDS011;1952;50.872;6.692;2023-03-04T16:26:12;5.77;;;2.47;;
3873;SDS011;1952;50.872;6.692;2023-03-04T16:28:42;5.93;;;2.47;;
3873;SDS011;1952;50.872;6.692;2023-03-04T16:31:13;3.10;;;2.80;;
3873;SDS011;1952;50.872;6.692;2023-03-04T16:33:42;3.27;;;2.67;;
3873;SDS011;1952;50.872;6.692;2023-03-04T16:36:12;4.50;;;2.37;;
3873;SDS011;1952;50.872;6.692;2023-03-04T16:38:46;4.10;;;2.73;;
3873;SDS011;1952;50.872;6.692;2023-03-04T16:41:15;3.87;;;2.77;;
3873;SDS011;1952;50.872;6.692;2023-03-04T16:43:49;7.20;;;2.70;;
3873;SDS011;1952;50.872;6.692;2023-03-04T16:46:25;7.00;;;2.47;;
3873;SDS011;1952;50.872;6.692;2023-03-04T16:48:54;8.73;;;3.17;;
3873;SDS011;1952;50.872;6.692;2023-03-04T16:51:22;4.40;;;3.00;;
3873;SDS011;1952;50.872;6.692;2023-03-04T16:53:56;3.20;;;3.00;;
3873;SDS011;1952;50.872;6.692;2023-03-04T16:56:25;4.87;;;2.70;;
3873;SDS011;1952;50.872;6.692;2023-03-04T16:59:01;3.43;;;3.13;;
3873;SDS011;1952;50.872;6.692;2023-03-04T17:01:29;2.83;;;2.60;;
3873;SDS011;1952;50.872;6.692;2023-03-04T17:04:04;4.30;;;3.10;;
3873;SDS011;1952;50.872;6.692;2023-03-04T17:06:35;4.10;;;3.80;;
3873;SDS011;1952;50.872;6.692;2023-03-04T17:09:09;4.10;;;2.87;;
3873;SDS011;1952;50.872;6.692;2023-03-04T17:11:38;3.67;;;3.30;;
3873;SDS011;1952;50.872;6.692;2023-03-04T17:14:12;5.83;;;4.50;;
3873;SDS011;1952;50.872;6.692;2023-03-04T17:16:41;3.70;;;3.40;;
3873;SDS011;1952;50.872;6.692;2023-03-04T17:19:09;3.60;;;3.30;;
3873;SDS011;1952;50.872;6.692;2023-03-04T17:21:37;7.87;;;3.20;;
3873;SDS011;1952;50.872;6.692;2023-03-04T17:24:11;4.70;;;3.03;;
3873;SDS011;1952;50.872;6.692;2023-03-04T17:26:39;4.97;;;4.10;;
3873;SDS011;1952;50.872;6.692;2023-03-04T17:29:08;3.70;;;2.90;;